sensor_id;sensor_type;location;lat;lon;timestamp;P1;durP1;ratioP1;P2;durP2;ratioP2
16770;SDS011;8503;52.472;13.344;2023-06-22T00:00:25;16.92;;;9.20;;
16770;SDS011;8503;52.472;13.344;2023-06-22T00:01:10;12.80;;;7.85;;
16770;SDS011;8503;52.472;13.344;2023-06-22T00:01:54;14.30;;;9.48;;
16770;SDS011;8503;52.472;13.344;2023-06-22T00:02:36;11.95;;;8.38;;
16770;SDS011;8503;52.472;13.344;2023-06-22T00:03:20;14.40;;;8.93;;
16770;SDS011;8503;52.472;13.344;2023-06-22T00:04:05;14.57;;;9.32;;
16770;SDS011;8503;52.472;13.344;2023-06-22T00:04:49;13.02;;;9.27;;
16770;SDS011;8503;52.472;13.344;2023-06-22T00:05:32;12.85;;;8.45;;
16770;SDS011;8503;52.472;13.344;2023-06-22T00:06:17;11.00;;;8.60;;
16770;SDS011;8503;52.472;13.344;2023-06-22T00:07:00;12.02;;;8.75;;
16770;SDS011;8503;52.472;13.344;2023-06-22T00:07:44;14.10;;;9.43;;
16770;SDS011;8503;52.472;13.344;2023-06-22T00:08:26;13.70;;;7.93;;
16770;SDS011;8503;52.472;13.344;2023-06-22T00:09:10;13.73;;;8.57;;
16770;SDS011;8503;52.472;13.344;2023-06-22T00:09:53;11.35;;;7.55;;
16770;SDS011;8503;52.472;13.344;2023-06-22T00:10:39;14.73;;;8.45;;
16770;SDS011;8503;52.472;13.344;2023-06-22T00:11:22;11.18;;;7.85;;
16770;SDS011;8503;52.472;13.344;2023-06-22T00:12:06;13.35;;;8.50;;
16770;SDS011;8503;52.472;13.344;2023-06-22T00:12:50;12.20;;;7.80;;
16770;SDS011;8503;52.472;13.344;2023-06-22T00:13:32;13.48;;;8.75;;
16770;SDS011;8503;52.472;13.344;2023-06-22T00:14:18;14.02;;;8.02;;
16770;SDS011;8503;52.472;13.344;2023-06-22T00:15:00;11.68;;;7.85;;
16770;SDS011;8503;52.472;13.344;2023-06-22T00:15:43;11.38;;;8.38;;
16770;SDS011;8503;52.472;13.344;2023-06-22T00:16:28;13.63;;;8.90;;
16770;SDS011;8503;52.472;13.344;2023-06-22T00:17:10;17.20;;;8.40;;
16770;SDS011;8503;52.472;13.344;2023-06-22T00:17:54;13.90;;;8.20;;
16770;SDS011;8503;52.472;13.344;2023-06-22T00:18:38;12.07;;;7.90;;
16770;SDS011;8503;52.472;13.344;2023-06-22T00:19:28;12.13;;;7.82;;
16770;SDS011;8503;52.472;13.344;2023-06-22T00:20:11;10.82;;;8.30;;
16770;SDS011;8503;52.472;13.344;2023-06-22T00:20:55;12.27;;;8.45;;
16770;SDS011;8503;52.472;13.344;2023-06-22T00:21:40;14.27;;;8.52;;
16770;SDS011;8503;52.472;13.344;2023-06-22T00:22:24;10.93;;;6.95;;
16770;SDS011;8503;52.472;13.344;2023-06-22T00:23:09;15.00;;;8.45;;
16770;SDS011;8503;52.472;13.344;2023-06-22T00:23:55;13.90;;;9.02;;
16770;SDS011;8503;52.472;13.344;2023-06-22T00:24:38;14.65;;;7.30;;
16770;SDS011;8503;52.472;13.344;2023-06-22T00:25:21;11.38;;;7.22;;
16770;SDS011;8503;52.472;13.344;2023-06-22T00:26:05;12.32;;;8.00;;
16770;SDS011;8503;52.472;13.344;2023-06-22T00:26:48;15.10;;;7.93;;
16770;SDS011;8503;52.472;13.344;2023-06-22T00:27:32;11.55;;;8.55;;
16770;SDS011;8503;52.472;13.344;2023-06-22T00:28:14;13.60;;;8.00;;
16770;SDS011;8503;52.472;13.344;2023-06-22T00:28:57;13.45;;;9.23;;
16770;SDS011;8503;52.472;13.344;2023-06-22T00:29:42;13.07;;;7.60;;
16770;SDS011;8503;52.472;13.344;2023-06-22T00:30:25;11.10;;;8.63;;
16770;SDS011;8503;52.472;13.344;2023-06-22T00:31:08;12.07;;;7.53;;
16770;SDS011;8503;52.472;13.344;2023-06-22T00:31:53;13.65;;;7.93;;
16770;SDS011;8503;52.472;13.344;2023-06-22T00:32:35;12.40;;;8.10;;
16770;SDS011;8503;52.472;13.344;2023-06-22T00:33:19;15.30;;;8.75;;
16770;SDS011;8503;52.472;13.344;2023-06-22T00:34:02;13.55;;;9.02;;
16770;SDS011;8503;52.472;13.344;2023-06-22T00:34:47;12.98;;;9.27;;
16770;SDS011;8503;52.472;13.344;2023-06-22T00:35:31;13.80;;;9.05;;
16770;SDS011;8503;52.472;13.344;2023-06-22T00:36:15;13.27;;;9.82;;
16770;SDS011;8503;52.472;13.344;2023-06-22T00:36:59;14.30;;;8.02;;
16770;SDS011;8503;52.472;13.344;2023-06-22T00:37:42;14.30;;;9.20;;
16770;SDS011;8503;52.472;13.344;2023-06-22T00:38:25;12.02;;;7.82;;
16770;SDS011;8503;52.472;13.344;2023-06-22T00:39:08;14.35;;;8.57;;
16770;SDS011;8503;52.472;13.344;2023-06-22T00:39:52;10.85;;;8.48;;
16770;SDS011;8503;52.472;13.344;2023-06-22T00:40:35;13.38;;;9.30;;
16770;SDS011;8503;52.472;13.344;2023-06-22T00:41:19;15.52;;;9.50;;
16770;SDS011;8503;52.472;13.344;2023-06-22T00:42:02;13.32;;;8.23;;
16770;SDS011;8503;52.472;13.344;2023-06-22T00:42:46;12.23;;;8.27;;
16770;SDS011;8503;52.472;13.344;2023-06-22T00:43:30;12.98;;;8.40;;
16770;SDS011;8503;52.472;13.344;2023-06-22T00:44:13;14.43;;;8.75;;
16770;SDS011;8503;52.472;13.344;2023-06-22T00:44:58;11.45;;;8.02;;
16770;SDS011;8503;52.472;13.344;2023-06-22T00:45:41;14.02;;;9.05;;
16770;SDS011;8503;52.472;13.344;2023-06-22T00:46:24;13.23;;;8.98;;
16770;SDS011;8503;52.472;13.344;2023-06-22T00:47:07;12.45;;;8.68;;
16770;SDS011;8503;52.472;13.344;2023-06-22T00:47:50;12.15;;;9.13;;
16770;SDS011;8503;52.472;13.344;2023-06-22T00:48:35;16.83;;;9.55;;
16770;SDS011;8503;52.472;13.344;2023-06-22T00:49:18;11.68;;;9.35;;
16770;SDS011;8503;52.472;13.344;2023-06-22T00:50:02;14.60;;;9.32;;
16770;SDS011;8503;52.472;13.344;2023-06-22T00:50:48;12.95;;;9.07;;
16770;SDS011;8503;52.472;13.344;2023-06-22T00:51:34;17.08;;;9.73;;
16770;SDS011;8503;52.472;13.344;2023-06-22T00:52:21;15.18;;;8.68;;
16770;SDS011;8503;52.472;13.344;2023-06-22T00:53:10;11.73;;;9.05;;
16770;SDS011;8503;52.472;13.344;2023-06-22T00:53:54;12.20;;;9.48;;
16770;SDS011;8503;52.472;13.344;2023-06-22T00:54:37;19.73;;;10.45;;
16770;SDS011;8503;52.472;13.344;2023-06-22T00:55:21;11.57;;;8.98;;
16770;SDS011;8503;52.472;13.344;2023-06-22T00:56:04;12.30;;;8.90;;
16770;SDS011;8503;52.472;13.344;2023-06-22T00:56:50;12.93;;;8.40;;
16770;SDS011;8503;52.472;13.344;2023-06-22T00:57:37;13.40;;;8.82;;
16770;SDS011;8503;52.472;13.344;2023-06-22T00:58:21;13.77;;;9.40;;
16770;SDS011;8503;52.472;13.344;2023-06-22T00:59:03;15.00;;;10.80;;
16770;SDS011;8503;52.472;13.344;2023-06-22T00:59:47;12.68;;;9.38;;
16770;SDS011;8503;52.472;13.344;2023-06-22T01:00:33;15.10;;;9.05;;
16770;SDS011;8503;52.472;13.344;2023-06-22T01:01:16;14.15;;;9.45;;
16770;SDS011;8503;52.472;13.344;2023-06-22T01:02:04;12.30;;;8.93;;
16770;SDS011;8503;52.472;13.344;2023-06-22T01:02:49;15.90;;;10.52;;
16770;SDS011;8503;52.472;13.344;2023-06-22T01:03:33;13.80;;;9.93;;
16770;SDS011;8503;52.472;13.344;2023-06-22T01:04:17;14.90;;;9.57;;
16770;SDS011;8503;52.472;13.344;2023-06-22T01:05:00;17.73;;;10.25;;
16770;SDS011;8503;52.472;13.344;2023-06-22T01:05:42;14.70;;;9.65;;
16770;SDS011;8503;52.472;13.344;2023-06-22T01:06:29;12.73;;;9.13;;
16770;SDS011;8503;52.472;13.344;2023-06-22T01:07:24;13.93;;;8.75;;
16770;SDS011;8503;52.472;13.344;2023-06-22T01:08:21;13.30;;;9.13;;
16770;SDS011;8503;52.472;13.344;2023-06-22T01:09:12;15.27;;;9.57;;
16770;SDS011;8503;52.472;13.344;2023-06-22T01:09:59;13.75;;;9.40;;
16770;SDS011;8503;52.472;13.344;2023-06-22T01:10:52;15.48;;;9.70;;
16770;SDS011;8503;52.472;13.344;2023-06-22T01:11:44;13.02;;;8.85;;
16770;SDS011;8503;52.472;13.344;2023-06-22T01:12:32;11.55;;;8.32;;
16770;SDS011;8503;52.472;13.344;2023-06-22T01:13:46;14.10;;;9.00;;
16770;SDS011;8503;52.472;13.344;2023-06-22T01:14:45;12.30;;;8.77;;
16770;SDS011;8503;52.472;13.344;2023-06-22T01:15:39;14.35;;;9.35;;
16770;SDS011;8503;52.472;13.344;2023-06-22T01:16:29;13.07;;;8.85;;
16770;SDS011;8503;52.472;13.344;2023-06-22T01:17:15;15.80;;;9.38;;
16770;SDS011;8503;52.472;13.344;2023-06-22T01:18:00;15.00;;;9.15;;
16770;SDS011;8503;52.472;13.344;2023-06-22T01:18:47;16.27;;;9.52;;
16770;SDS011;8503;52.472;13.344;2023-06-22T01:19:38;12.73;;;8.77;;
16770;SDS011;8503;52.472;13.344;2023-06-22T01:20:28;12.43;;;8.85;;
16770;SDS011;8503;52.472;13.344;2023-06-22T01:21:14;15.43;;;9.70;;
16770;SDS011;8503;52.472;13.344;2023-06-22T01:22:00;15.65;;;10.15;;
16770;SDS011;8503;52.472;13.344;2023-06-22T01:22:50;12.63;;;9.27;;
16770;SDS011;8503;52.472;13.344;2023-06-22T01:23:55;15.82;;;9.70;;
16770;SDS011;8503;52.472;13.344;2023-06-22T01:24:59;15.52;;;9.48;;
16770;SDS011;8503;52.472;13.344;2023-06-22T01:25:53;15.63;;;10.23;;
16770;SDS011;8503;52.472;13.344;2023-06-22T01:26:48;14.85;;;10.20;;
16770;SDS011;8503;52.472;13.344;2023-06-22T01:27:47;14.00;;;9.23;;
16770;SDS011;8503;52.472;13.344;2023-06-22T01:28:44;13.32;;;9.25;;
16770;SDS011;8503;52.472;13.344;2023-06-22T01:29:29;14.38;;;9.93;;
16770;SDS011;8503;52.472;13.344;2023-06-22T01:30:15;12.48;;;8.93;;
16770;SDS011;8503;52.472;13.344;2023-06-22T01:31:00;14.80;;;9.90;;
16770;SDS011;8503;52.472;13.344;2023-06-22T01:31:46;19.90;;;10.45;;
16770;SDS011;8503;52.472;13.344;2023-06-22T01:32:33;18.38;;;10.80;;
16770;SDS011;8503;52.472;13.344;2023-06-22T01:33:19;16.80;;;10.88;;
16770;SDS011;8503;52.472;13.344;2023-06-22T01:34:03;14.30;;;10.38;;
16770;SDS011;8503;52.472;13.344;2023-06-22T01:34:49;18.45;;;10.70;;
16770;SDS011;8503;52.472;13.344;2023-06-22T01:35:32;17.42;;;11.18;;
16770;SDS011;8503;52.472;13.344;2023-06-22T01:36:17;16.80;;;10.65;;
16770;SDS011;8503;52.472;13.344;2023-06-22T01:37:01;15.48;;;10.38;;
16770;SDS011;8503;52.472;13.344;2023-06-22T01:37:45;14.18;;;10.77;;
16770;SDS011;8503;52.472;13.344;2023-06-22T01:38:29;14.05;;;11.32;;
16770;SDS011;8503;52.472;13.344;2023-06-22T01:39:12;16.95;;;10.50;;
16770;SDS011;8503;52.472;13.344;2023-06-22T01:39:57;18.30;;;10.90;;
16770;SDS011;8503;52.472;13.344;2023-06-22T01:40:41;15.90;;;10.90;;
16770;SDS011;8503;52.472;13.344;2023-06-22T01:41:26;18.25;;;11.32;;
16770;SDS011;8503;52.472;13.344;2023-06-22T01:42:10;17.88;;;12.02;;
16770;SDS011;8503;52.472;13.344;2023-06-22T01:42:54;20.40;;;12.32;;
16770;SDS011;8503;52.472;13.344;2023-06-22T01:43:38;16.02;;;10.98;;
16770;SDS011;8503;52.472;13.344;2023-06-22T01:44:23;19.23;;;10.60;;
16770;SDS011;8503;52.472;13.344;2023-06-22T01:45:07;19.13;;;12.55;;
16770;SDS011;8503;52.472;13.344;2023-06-22T01:45:53;16.23;;;11.93;;
16770;SDS011;8503;52.472;13.344;2023-06-22T01:46:37;18.35;;;11.85;;
16770;SDS011;8503;52.472;13.344;2023-06-22T01:47:22;18.15;;;12.40;;
16770;SDS011;8503;52.472;13.344;2023-06-22T01:48:06;17.55;;;11.80;;
16770;SDS011;8503;52.472;13.344;2023-06-22T01:48:50;18.50;;;12.40;;
16770;SDS011;8503;52.472;13.344;2023-06-22T01:49:34;22.25;;;12.82;;
16770;SDS011;8503;52.472;13.344;2023-06-22T01:50:17;19.33;;;12.57;;
16770;SDS011;8503;52.472;13.344;2023-06-22T01:51:00;18.10;;;11.10;;
16770;SDS011;8503;52.472;13.344;2023-06-22T01:51:44;20.73;;;12.48;;
16770;SDS011;8503;52.472;13.344;2023-06-22T01:52:27;17.63;;;12.43;;
16770;SDS011;8503;52.472;13.344;2023-06-22T01:53:11;18.08;;;12.35;;
16770;SDS011;8503;52.472;13.344;2023-06-22T01:53:54;18.48;;;12.45;;
16770;SDS011;8503;52.472;13.344;2023-06-22T01:54:38;19.25;;;11.30;;
16770;SDS011;8503;52.472;13.344;2023-06-22T01:55:24;17.40;;;11.55;;
16770;SDS011;8503;52.472;13.344;2023-06-22T01:56:07;20.17;;;13.27;;
16770;SDS011;8503;52.472;13.344;2023-06-22T01:56:51;21.65;;;12.68;;
16770;SDS011;8503;52.472;13.344;2023-06-22T01:57:34;20.13;;;13.38;;
16770;SDS011;8503;52.472;13.344;2023-06-22T01:58:20;22.33;;;14.00;;
16770;SDS011;8503;52.472;13.344;2023-06-22T01:59:09;23.08;;;13.40;;
16770;SDS011;8503;52.472;13.344;2023-06-22T02:00:47;22.25;;;13.10;;
16770;SDS011;8503;52.472;13.344;2023-06-22T02:01:35;18.27;;;11.45;;
16770;SDS011;8503;52.472;13.344;2023-06-22T02:02:25;20.45;;;13.05;;
16770;SDS011;8503;52.472;13.344;2023-06-22T02:03:16;19.33;;;13.05;;
16770;SDS011;8503;52.472;13.344;2023-06-22T02:04:04;22.92;;;14.15;;
16770;SDS011;8503;52.472;13.344;2023-06-22T02:04:54;19.50;;;12.63;;
16770;SDS011;8503;52.472;13.344;2023-06-22T02:05:46;21.63;;;13.63;;
16770;SDS011;8503;52.472;13.344;2023-06-22T02:06:33;24.65;;;14.30;;
16770;SDS011;8503;52.472;13.344;2023-06-22T02:07:20;18.20;;;12.70;;
16770;SDS011;8503;52.472;13.344;2023-06-22T02:08:08;19.73;;;12.23;;
16770;SDS011;8503;52.472;13.344;2023-06-22T02:08:59;19.95;;;12.35;;
16770;SDS011;8503;52.472;13.344;2023-06-22T02:09:55;21.60;;;13.50;;
16770;SDS011;8503;52.472;13.344;2023-06-22T02:10:40;20.30;;;13.13;;
16770;SDS011;8503;52.472;13.344;2023-06-22T02:11:23;20.67;;;13.65;;
16770;SDS011;8503;52.472;13.344;2023-06-22T02:12:10;19.98;;;13.13;;
16770;SDS011;8503;52.472;13.344;2023-06-22T02:12:55;20.05;;;13.80;;
16770;SDS011;8503;52.472;13.344;2023-06-22T02:13:40;21.85;;;13.73;;
16770;SDS011;8503;52.472;13.344;2023-06-22T02:14:24;18.58;;;12.32;;
16770;SDS011;8503;52.472;13.344;2023-06-22T02:15:10;19.15;;;12.45;;
16770;SDS011;8503;52.472;13.344;2023-06-22T02:15:54;20.50;;;13.15;;
16770;SDS011;8503;52.472;13.344;2023-06-22T02:16:37;19.30;;;12.45;;
16770;SDS011;8503;52.472;13.344;2023-06-22T02:17:21;21.17;;;12.18;;
16770;SDS011;8503;52.472;13.344;2023-06-22T02:18:06;18.13;;;12.07;;
16770;SDS011;8503;52.472;13.344;2023-06-22T02:18:50;21.88;;;13.73;;
16770;SDS011;8503;52.472;13.344;2023-06-22T02:19:35;19.92;;;13.32;;
16770;SDS011;8503;52.472;13.344;2023-06-22T02:20:19;20.05;;;13.05;;
16770;SDS011;8503;52.472;13.344;2023-06-22T02:21:03;19.33;;;13.57;;
16770;SDS011;8503;52.472;13.344;2023-06-22T02:21:45;22.48;;;13.25;;
16770;SDS011;8503;52.472;13.344;2023-06-22T02:22:29;17.80;;;12.35;;
16770;SDS011;8503;52.472;13.344;2023-06-22T02:23:12;19.10;;;13.43;;
16770;SDS011;8503;52.472;13.344;2023-06-22T02:23:56;18.73;;;13.13;;
16770;SDS011;8503;52.472;13.344;2023-06-22T02:24:38;22.40;;;13.75;;
16770;SDS011;8503;52.472;13.344;2023-06-22T02:25:22;21.00;;;13.80;;
16770;SDS011;8503;52.472;13.344;2023-06-22T02:26:05;22.17;;;12.68;;
16770;SDS011;8503;52.472;13.344;2023-06-22T02:26:48;21.45;;;14.50;;
16770;SDS011;8503;52.472;13.344;2023-06-22T02:27:32;23.17;;;13.52;;
16770;SDS011;8503;52.472;13.344;2023-06-22T02:28:15;19.80;;;13.93;;
16770;SDS011;8503;52.472;13.344;2023-06-22T02:28:59;21.15;;;13.60;;
16770;SDS011;8503;52.472;13.344;2023-06-22T02:29:42;19.02;;;13.70;;
16770;SDS011;8503;52.472;13.344;2023-06-22T02:30:26;23.33;;;13.45;;
16770;SDS011;8503;52.472;13.344;2023-06-22T02:31:11;19.00;;;13.52;;
16770;SDS011;8503;52.472;13.344;2023-06-22T02:31:53;19.25;;;13.30;;
16770;SDS011;8503;52.472;13.344;2023-06-22T02:32:37;19.23;;;12.65;;
16770;SDS011;8503;52.472;13.344;2023-06-22T02:33:23;17.50;;;12.82;;
16770;SDS011;8503;52.472;13.344;2023-06-22T02:34:08;21.90;;;13.52;;
16770;SDS011;8503;52.472;13.344;2023-06-22T02:34:52;23.58;;;14.55;;
16770;SDS011;8503;52.472;13.344;2023-06-22T02:35:35;27.30;;;13.73;;
16770;SDS011;8503;52.472;13.344;2023-06-22T02:36:19;21.30;;;15.18;;
16770;SDS011;8503;52.472;13.344;2023-06-22T02:37:06;22.80;;;14.25;;
16770;SDS011;8503;52.472;13.344;2023-06-22T02:37:54;20.90;;;12.52;;
16770;SDS011;8503;52.472;13.344;2023-06-22T02:38:37;23.05;;;13.77;;
16770;SDS011;8503;52.472;13.344;2023-06-22T02:39:21;23.33;;;14.23;;
16770;SDS011;8503;52.472;13.344;2023-06-22T02:40:50;22.05;;;14.25;;
16770;SDS011;8503;52.472;13.344;2023-06-22T02:41:33;22.23;;;14.13;;
16770;SDS011;8503;52.472;13.344;2023-06-22T02:42:16;19.98;;;13.75;;
16770;SDS011;8503;52.472;13.344;2023-06-22T02:43:02;24.55;;;13.55;;
16770;SDS011;8503;52.472;13.344;2023-06-22T02:43:46;22.30;;;13.75;;
16770;SDS011;8503;52.472;13.344;2023-06-22T02:44:29;23.05;;;14.10;;
16770;SDS011;8503;52.472;13.344;2023-06-22T02:45:12;22.00;;;14.30;;
16770;SDS011;8503;52.472;13.344;2023-06-22T02:45:57;19.75;;;13.45;;
16770;SDS011;8503;52.472;13.344;2023-06-22T02:46:40;21.60;;;13.57;;
16770;SDS011;8503;52.472;13.344;2023-06-22T02:47:23;17.63;;;12.85;;
16770;SDS011;8503;52.472;13.344;2023-06-22T02:48:07;22.27;;;14.50;;
16770;SDS011;8503;52.472;13.344;2023-06-22T02:48:50;21.95;;;13.23;;
16770;SDS011;8503;52.472;13.344;2023-06-22T02:49:33;20.88;;;14.57;;
16770;SDS011;8503;52.472;13.344;2023-06-22T02:50:17;26.30;;;14.57;;
16770;SDS011;8503;52.472;13.344;2023-06-22T02:51:00;22.15;;;13.70;;
16770;SDS011;8503;52.472;13.344;2023-06-22T02:51:45;20.95;;;13.43;;
16770;SDS011;8503;52.472;13.344;2023-06-22T02:52:29;20.80;;;13.88;;
16770;SDS011;8503;52.472;13.344;2023-06-22T02:53:13;23.00;;;14.30;;
16770;SDS011;8503;52.472;13.344;2023-06-22T02:53:56;21.05;;;13.13;;
16770;SDS011;8503;52.472;13.344;2023-06-22T02:54:39;18.30;;;13.20;;
16770;SDS011;8503;52.472;13.344;2023-06-22T02:55:22;21.65;;;13.90;;
16770;SDS011;8503;52.472;13.344;2023-06-22T02:56:06;21.08;;;13.07;;
16770;SDS011;8503;52.472;13.344;2023-06-22T02:56:49;20.65;;;13.90;;
16770;SDS011;8503;52.472;13.344;2023-06-22T02:57:33;23.50;;;13.20;;
16770;SDS011;8503;52.472;13.344;2023-06-22T02:58:18;21.55;;;14.73;;
16770;SDS011;8503;52.472;13.344;2023-06-22T02:59:00;26.55;;;14.73;;
16770;SDS011;8503;52.472;13.344;2023-06-22T02:59:44;21.33;;;12.98;;
16770;SDS011;8503;52.472;13.344;2023-06-22T03:00:27;22.55;;;13.65;;
16770;SDS011;8503;52.472;13.344;2023-06-22T03:01:14;24.95;;;14.30;;
16770;SDS011;8503;52.472;13.344;2023-06-22T03:01:56;19.83;;;13.30;;
16770;SDS011;8503;52.472;13.344;2023-06-22T03:02:40;20.33;;;14.07;;
16770;SDS011;8503;52.472;13.344;2023-06-22T03:03:24;24.15;;;14.85;;
16770;SDS011;8503;52.472;13.344;2023-06-22T03:04:08;18.92;;;13.82;;
16770;SDS011;8503;52.472;13.344;2023-06-22T03:04:52;20.77;;;13.18;;
16770;SDS011;8503;52.472;13.344;2023-06-22T03:05:35;19.75;;;13.88;;
16770;SDS011;8503;52.472;13.344;2023-06-22T03:06:18;22.98;;;13.90;;
16770;SDS011;8503;52.472;13.344;2023-06-22T03:07:04;22.00;;;13.43;;
16770;SDS011;8503;52.472;13.344;2023-06-22T03:07:47;24.17;;;14.48;;
16770;SDS011;8503;52.472;13.344;2023-06-22T03:08:33;19.30;;;12.88;;
16770;SDS011;8503;52.472;13.344;2023-06-22T03:09:16;23.42;;;14.45;;
16770;SDS011;8503;52.472;13.344;2023-06-22T03:09:59;20.33;;;13.85;;
16770;SDS011;8503;52.472;13.344;2023-06-22T03:10:43;21.90;;;13.13;;
16770;SDS011;8503;52.472;13.344;2023-06-22T03:11:25;22.98;;;15.05;;
16770;SDS011;8503;52.472;13.344;2023-06-22T03:12:09;20.17;;;14.77;;
16770;SDS011;8503;52.472;13.344;2023-06-22T03:12:52;20.05;;;13.82;;
16770;SDS011;8503;52.472;13.344;2023-06-22T03:13:36;21.98;;;13.57;;
16770;SDS011;8503;52.472;13.344;2023-06-22T03:14:19;19.95;;;14.23;;
16770;SDS011;8503;52.472;13.344;2023-06-22T03:15:03;18.92;;;13.18;;
16770;SDS011;8503;52.472;13.344;2023-06-22T03:16:32;22.05;;;14.20;;
16770;SDS011;8503;52.472;13.344;2023-06-22T03:17:16;25.20;;;13.35;;
16770;SDS011;8503;52.472;13.344;2023-06-22T03:17:59;24.65;;;13.15;;
16770;SDS011;8503;52.472;13.344;2023-06-22T03:18:43;21.10;;;13.13;;
16770;SDS011;8503;52.472;13.344;2023-06-22T03:19:26;21.27;;;12.52;;
16770;SDS011;8503;52.472;13.344;2023-06-22T03:20:10;21.95;;;13.63;;
16770;SDS011;8503;52.472;13.344;2023-06-22T03:20:53;19.08;;;13.75;;
16770;SDS011;8503;52.472;13.344;2023-06-22T03:21:37;19.48;;;12.23;;
16770;SDS011;8503;52.472;13.344;2023-06-22T03:22:21;22.40;;;14.40;;
16770;SDS011;8503;52.472;13.344;2023-06-22T03:23:04;22.02;;;14.23;;
16770;SDS011;8503;52.472;13.344;2023-06-22T03:23:47;22.65;;;14.32;;
16770;SDS011;8503;52.472;13.344;2023-06-22T03:24:31;21.10;;;13.20;;
16770;SDS011;8503;52.472;13.344;2023-06-22T03:25:15;19.17;;;12.15;;
16770;SDS011;8503;52.472;13.344;2023-06-22T03:25:59;22.05;;;14.05;;
16770;SDS011;8503;52.472;13.344;2023-06-22T03:26:42;23.85;;;14.52;;
16770;SDS011;8503;52.472;13.344;2023-06-22T03:27:27;17.55;;;13.15;;
16770;SDS011;8503;52.472;13.344;2023-06-22T03:28:11;21.90;;;12.10;;
16770;SDS011;8503;52.472;13.344;2023-06-22T03:28:54;22.98;;;12.63;;
16770;SDS011;8503;52.472;13.344;2023-06-22T03:29:38;20.27;;;14.35;;
16770;SDS011;8503;52.472;13.344;2023-06-22T03:30:20;21.25;;;13.55;;
16770;SDS011;8503;52.472;13.344;2023-06-22T03:31:04;24.13;;;13.63;;
16770;SDS011;8503;52.472;13.344;2023-06-22T03:31:49;20.00;;;12.50;;
16770;SDS011;8503;52.472;13.344;2023-06-22T03:32:33;22.65;;;12.07;;
16770;SDS011;8503;52.472;13.344;2023-06-22T03:33:16;19.30;;;13.23;;
16770;SDS011;8503;52.472;13.344;2023-06-22T03:34:00;22.08;;;14.10;;
16770;SDS011;8503;52.472;13.344;2023-06-22T03:34:43;17.65;;;12.55;;
16770;SDS011;8503;52.472;13.344;2023-06-22T03:35:28;19.08;;;13.38;;
16770;SDS011;8503;52.472;13.344;2023-06-22T03:36:11;18.98;;;13.57;;
16770;SDS011;8503;52.472;13.344;2023-06-22T03:36:54;18.30;;;11.95;;
16770;SDS011;8503;52.472;13.344;2023-06-22T03:37:38;20.08;;;12.55;;
16770;SDS011;8503;52.472;13.344;2023-06-22T03:38:22;22.27;;;12.27;;
16770;SDS011;8503;52.472;13.344;2023-06-22T03:39:05;19.02;;;12.52;;
16770;SDS011;8503;52.472;13.344;2023-06-22T03:39:49;22.20;;;11.68;;
16770;SDS011;8503;52.472;13.344;2023-06-22T03:40:31;19.23;;;12.80;;
16770;SDS011;8503;52.472;13.344;2023-06-22T03:41:15;19.15;;;12.43;;
16770;SDS011;8503;52.472;13.344;2023-06-22T03:41:58;17.42;;;11.57;;
16770;SDS011;8503;52.472;13.344;2023-06-22T03:42:42;21.88;;;12.73;;
16770;SDS011;8503;52.472;13.344;2023-06-22T03:43:25;19.27;;;11.75;;
16770;SDS011;8503;52.472;13.344;2023-06-22T03:44:08;18.77;;;13.48;;
16770;SDS011;8503;52.472;13.344;2023-06-22T03:44:53;21.42;;;12.60;;
16770;SDS011;8503;52.472;13.344;2023-06-22T03:45:37;18.65;;;12.65;;
16770;SDS011;8503;52.472;13.344;2023-06-22T03:46:21;19.63;;;12.02;;
16770;SDS011;8503;52.472;13.344;2023-06-22T03:47:06;21.95;;;13.80;;
16770;SDS011;8503;52.472;13.344;2023-06-22T03:47:50;20.20;;;13.65;;
16770;SDS011;8503;52.472;13.344;2023-06-22T03:48:33;18.27;;;12.07;;
16770;SDS011;8503;52.472;13.344;2023-06-22T03:49:17;19.67;;;12.85;;
16770;SDS011;8503;52.472;13.344;2023-06-22T03:50:00;18.05;;;12.27;;
16770;SDS011;8503;52.472;13.344;2023-06-22T03:50:45;17.95;;;12.35;;
16770;SDS011;8503;52.472;13.344;2023-06-22T03:51:29;15.90;;;10.90;;
16770;SDS011;8503;52.472;13.344;2023-06-22T03:52:11;16.83;;;11.57;;
16770;SDS011;8503;52.472;13.344;2023-06-22T03:52:54;18.30;;;12.15;;
16770;SDS011;8503;52.472;13.344;2023-06-22T03:53:38;18.35;;;12.60;;
16770;SDS011;8503;52.472;13.344;2023-06-22T03:54:21;17.40;;;11.65;;
16770;SDS011;8503;52.472;13.344;2023-06-22T03:55:05;16.63;;;11.93;;
16770;SDS011;8503;52.472;13.344;2023-06-22T03:55:49;16.52;;;11.55;;
16770;SDS011;8503;52.472;13.344;2023-06-22T03:56:34;18.45;;;11.13;;
16770;SDS011;8503;52.472;13.344;2023-06-22T03:57:17;17.25;;;12.50;;
16770;SDS011;8503;52.472;13.344;2023-06-22T03:58:00;18.17;;;11.48;;
16770;SDS011;8503;52.472;13.344;2023-06-22T03:58:47;19.17;;;12.13;;
16770;SDS011;8503;52.472;13.344;2023-06-22T03:59:31;14.65;;;10.52;;
16770;SDS011;8503;52.472;13.344;2023-06-22T04:00:14;15.25;;;9.65;;
16770;SDS011;8503;52.472;13.344;2023-06-22T04:00:59;18.55;;;10.32;;
16770;SDS011;8503;52.472;13.344;2023-06-22T04:01:41;18.45;;;11.32;;
16770;SDS011;8503;52.472;13.344;2023-06-22T04:02:27;19.45;;;10.95;;
16770;SDS011;8503;52.472;13.344;2023-06-22T04:03:10;19.30;;;10.90;;
16770;SDS011;8503;52.472;13.344;2023-06-22T04:03:54;17.88;;;10.73;;
16770;SDS011;8503;52.472;13.344;2023-06-22T04:04:36;15.25;;;10.35;;
16770;SDS011;8503;52.472;13.344;2023-06-22T04:05:20;15.07;;;9.98;;
16770;SDS011;8503;52.472;13.344;2023-06-22T04:06:05;16.48;;;10.43;;
16770;SDS011;8503;52.472;13.344;2023-06-22T04:06:48;14.52;;;10.48;;
16770;SDS011;8503;52.472;13.344;2023-06-22T04:07:32;15.35;;;9.90;;
16770;SDS011;8503;52.472;13.344;2023-06-22T04:08:15;14.68;;;9.43;;
16770;SDS011;8503;52.472;13.344;2023-06-22T04:08:59;15.80;;;10.63;;
16770;SDS011;8503;52.472;13.344;2023-06-22T04:09:58;14.93;;;10.10;;
16770;SDS011;8503;52.472;13.344;2023-06-22T04:11:09;13.25;;;9.45;;
16770;SDS011;8503;52.472;13.344;2023-06-22T04:12:14;13.02;;;9.25;;
16770;SDS011;8503;52.472;13.344;2023-06-22T04:13:11;14.60;;;9.85;;
16770;SDS011;8503;52.472;13.344;2023-06-22T04:14:24;15.55;;;9.60;;
16770;SDS011;8503;52.472;13.344;2023-06-22T04:15:37;13.15;;;8.88;;
16770;SDS011;8503;52.472;13.344;2023-06-22T04:16:49;11.25;;;8.43;;
16770;SDS011;8503;52.472;13.344;2023-06-22T04:18:03;13.55;;;9.30;;
16770;SDS011;8503;52.472;13.344;2023-06-22T04:19:03;10.90;;;8.35;;
16770;SDS011;8503;52.472;13.344;2023-06-22T04:20:32;12.48;;;7.82;;
16770;SDS011;8503;52.472;13.344;2023-06-22T04:21:32;13.60;;;8.93;;
16770;SDS011;8503;52.472;13.344;2023-06-22T04:22:29;11.90;;;8.70;;
16770;SDS011;8503;52.472;13.344;2023-06-22T04:23:46;11.55;;;8.20;;
16770;SDS011;8503;52.472;13.344;2023-06-22T04:24:47;10.18;;;8.30;;
16770;SDS011;8503;52.472;13.344;2023-06-22T04:25:47;12.35;;;8.38;;
16770;SDS011;8503;52.472;13.344;2023-06-22T04:29:39;13.65;;;8.38;;
16770;SDS011;8503;52.472;13.344;2023-06-22T04:30:33;13.52;;;7.90;;
16770;SDS011;8503;52.472;13.344;2023-06-22T04:31:18;11.57;;;8.32;;
16770;SDS011;8503;52.472;13.344;2023-06-22T04:32:35;11.90;;;8.38;;
16770;SDS011;8503;52.472;13.344;2023-06-22T04:33:43;12.40;;;8.18;;
16770;SDS011;8503;52.472;13.344;2023-06-22T04:34:43;12.88;;;8.77;;
16770;SDS011;8503;52.472;13.344;2023-06-22T04:35:41;12.02;;;8.50;;
16770;SDS011;8503;52.472;13.344;2023-06-22T04:37:03;14.20;;;8.10;;